createdAt,value
2017-10-24T00:00:03.676Z,10.40
2017-10-24T00:02:33.470Z,10.30
2017-10-24T00:05:02.506Z,10.20
2017-10-24T00:07:30.775Z,10.20
2017-10-24T00:09:59.067Z,10.20
2017-10-24T00:12:27.331Z,10.20
2017-10-24T00:14:55.644Z,10.20
2017-10-24T00:17:24.659Z,10.20
2017-10-24T00:19:52.975Z,10.10
2017-10-24T00:22:21.254Z,10.20
2017-10-24T00:24:49.528Z,10.20
2017-10-24T00:27:17.834Z,10.20
2017-10-24T00:29:46.887Z,10.30
2017-10-24T00:32:15.189Z,10.20
2017-10-24T00:34:44.228Z,10.30
2017-10-24T00:37:12.559Z,10.30
2017-10-24T00:39:40.815Z,10.30
2017-10-24T00:42:09.083Z,10.30
2017-10-24T00:44:37.396Z,10.20
2017-10-24T00:47:05.663Z,10.20
2017-10-24T00:49:33.951Z,10.20
2017-10-24T00:52:02.212Z,10.20
2017-10-24T00:54:30.490Z,10.20
2017-10-24T00:56:58.807Z,10.20
2017-10-24T00:59:27.986Z,10.30
2017-10-24T01:01:56.270Z,10.20
2017-10-24T01:04:25.315Z,10.30
2017-10-24T01:06:53.590Z,10.20
2017-10-24T01:09:21.860Z,10.30
2017-10-24T01:11:50.930Z,10.20
2017-10-24T01:14:19.194Z,10.20
2017-10-24T01:16:47.498Z,10.20
2017-10-24T01:19:15.776Z,10.20
2017-10-24T01:21:44.046Z,10.20
2017-10-24T01:24:12.329Z,10.20
2017-10-24T01:26:40.595Z,10.10
2017-10-24T01:29:08.881Z,10.00
2017-10-24T01:31:37.915Z,10.10
2017-10-24T01:34:06.201Z,10.00
2017-10-24T01:36:34.466Z,10.10
2017-10-24T01:39:02.771Z,10.10
2017-10-24T01:41:31.038Z,10.10
2017-10-24T01:43:59.306Z,10.10
2017-10-24T01:46:27.591Z,10.20
2017-10-24T01:48:55.862Z,10.20
2017-10-24T01:51:24.142Z,10.30
2017-10-24T01:53:53.174Z,10.30
2017-10-24T01:56:21.462Z,10.20
2017-10-24T01:58:49.735Z,10.20
2017-10-24T02:01:18.785Z,10.20
2017-10-24T02:03:47.053Z,10.20
2017-10-24T02:06:15.334Z,10.20
2017-10-24T02:08:43.611Z,10.20
2017-10-24T02:11:12.870Z,10.20
2017-10-24T02:13:41.134Z,10.20
2017-10-24T02:16:09.399Z,10.20
2017-10-24T02:18:37.683Z,10.20
2017-10-24T02:21:05.951Z,10.20
2017-10-24T02:23:34.245Z,10.20
2017-10-24T02:26:02.509Z,10.20
2017-10-24T02:28:30.794Z,10.10
2017-10-24T02:30:59.066Z,10.10
2017-10-24T02:33:27.331Z,10.10
2017-10-24T02:35:56.521Z,10.10
2017-10-24T02:38:25.545Z,10.10
2017-10-24T02:40:53.826Z,10.10
2017-10-24T02:43:22.091Z,10.10
2017-10-24T02:45:50.399Z,10.10
2017-10-24T02:48:18.670Z,10.10
2017-10-24T02:50:46.942Z,10.10
2017-10-24T02:53:15.230Z,10.10
2017-10-24T02:55:43.498Z,10.10
2017-10-24T02:58:11.840Z,10.10
2017-10-24T03:00:40.103Z,10.10
2017-10-24T03:03:08.389Z,10.10
2017-10-24T03:05:36.658Z,10.10
2017-10-24T03:08:04.999Z,10.10
2017-10-24T03:10:33.254Z,10.20
2017-10-24T03:13:01.622Z,10.10
2017-10-24T03:15:29.918Z,10.20
2017-10-24T03:17:58.179Z,10.20
2017-10-24T03:20:27.242Z,10.20
2017-10-24T03:22:55.523Z,10.10
2017-10-24T03:25:24.598Z,10.20
2017-10-24T03:27:53.647Z,10.20
2017-10-24T03:30:21.917Z,10.20
2017-10-24T03:32:50.203Z,10.20
2017-10-24T03:35:19.254Z,10.20
2017-10-24T03:37:47.547Z,10.10
2017-10-24T03:40:16.582Z,10.20
2017-10-24T03:42:44.895Z,10.20
2017-10-24T03:45:13.935Z,10.20
2017-10-24T03:47:42.215Z,10.20
2017-10-24T03:50:10.588Z,10.30
2017-10-24T03:52:39.623Z,10.30
2017-10-24T03:55:07.915Z,10.20
2017-10-24T03:57:36.188Z,10.30
2017-10-24T04:00:05.248Z,10.30
2017-10-24T04:02:33.519Z,10.20
2017-10-24T04:05:02.614Z,10.30
2017-10-24T04:07:31.650Z,10.20
2017-10-24T04:09:59.944Z,10.20
2017-10-24T04:12:28.998Z,10.40
2017-10-24T04:14:57.295Z,10.30
2017-10-24T04:17:26.346Z,10.50
2017-10-24T04:19:54.631Z,10.40
2017-10-24T04:22:22.916Z,10.40
2017-10-24T04:24:51.182Z,10.40
2017-10-24T04:27:19.455Z,10.40
2017-10-24T04:29:47.759Z,10.50
2017-10-24T04:32:16.026Z,10.50
2017-10-24T04:34:44.346Z,10.50
2017-10-24T04:37:12.727Z,10.50
2017-10-24T04:39:40.986Z,10.40
2017-10-24T04:42:09.274Z,10.50
2017-10-24T04:44:37.552Z,10.40
2017-10-24T04:47:05.830Z,10.50
2017-10-24T04:49:34.110Z,10.40
2017-10-24T04:52:02.415Z,10.40
2017-10-24T04:54:30.691Z,10.40
2017-10-24T04:56:59.741Z,10.30
2017-10-24T04:59:28.031Z,10.30
2017-10-24T05:01:57.122Z,10.20
2017-10-24T05:04:25.394Z,10.10
2017-10-24T05:06:53.669Z,10.20
2017-10-24T05:12:04.078Z,10.20
2017-10-24T05:14:33.131Z,10.10
2017-10-24T05:17:05.846Z,10.10
2017-10-24T05:19:35.878Z,10.00
2017-10-24T05:22:04.170Z,10.00
2017-10-24T05:24:32.475Z,10.00
2017-10-24T05:27:00.754Z,10.00
2017-10-24T05:29:32.906Z,10.00
2017-10-24T05:32:01.404Z,10.10
2017-10-24T05:34:29.686Z,10.10
2017-10-24T05:36:58.731Z,10.10
2017-10-24T05:39:27.022Z,10.10
2017-10-24T05:41:55.302Z,10.20
2017-10-24T05:44:23.607Z,10.20
2017-10-24T05:46:51.902Z,10.20
2017-10-24T05:49:20.198Z,10.20
2017-10-24T05:51:48.494Z,10.20
2017-10-24T05:54:16.776Z,10.30
2017-10-24T05:56:45.058Z,10.30
2017-10-24T05:59:14.099Z,10.30
2017-10-24T06:01:42.539Z,10.20
2017-10-24T06:04:10.812Z,10.20
2017-10-24T06:06:40.622Z,10.20
2017-10-24T06:09:08.925Z,10.10
2017-10-24T06:11:37.962Z,10.20
2017-10-24T06:14:06.251Z,10.10
2017-10-24T06:16:36.022Z,10.10
2017-10-24T06:19:04.319Z,10.10
2017-10-24T06:21:33.353Z,10.10
2017-10-24T06:24:01.655Z,10.10
2017-10-24T06:26:29.928Z,10.10
2017-10-24T06:28:58.986Z,10.30
2017-10-24T06:31:28.783Z,10.20
2017-10-24T06:33:57.064Z,10.20
2017-10-24T06:36:26.122Z,10.30
2017-10-24T06:38:55.905Z,10.30
2017-10-24T06:41:24.201Z,10.30
2017-10-24T06:43:53.247Z,10.30
2017-10-24T06:46:21.534Z,10.30
2017-10-24T06:48:49.838Z,10.30
2017-10-24T06:51:18.115Z,10.30
2017-10-24T06:53:46.411Z,10.30
2017-10-24T06:56:16.198Z,10.30
2017-10-24T06:58:44.483Z,10.30
2017-10-24T07:01:13.518Z,10.50
2017-10-24T07:03:41.796Z,10.40
2017-10-24T07:06:10.088Z,10.50
2017-10-24T07:08:39.130Z,10.60
2017-10-24T07:11:07.434Z,10.60
2017-10-24T07:13:36.469Z,10.80
2017-10-24T07:16:04.747Z,10.80
2017-10-24T07:18:33.036Z,10.90
2017-10-24T07:21:02.099Z,11.00
2017-10-24T07:23:30.418Z,11.00
2017-10-24T07:25:58.690Z,11.10
2017-10-24T07:28:26.970Z,11.00
2017-10-24T07:30:55.268Z,11.10
2017-10-24T07:33:23.542Z,11.30
2017-10-24T07:35:51.829Z,11.50
2017-10-24T07:38:20.095Z,11.60
2017-10-24T07:40:48.409Z,11.60
2017-10-24T07:43:17.447Z,11.60
2017-10-24T07:45:45.711Z,11.60
2017-10-24T07:48:13.993Z,11.70
2017-10-24T07:50:42.256Z,11.80
2017-10-24T07:53:10.547Z,11.90
2017-10-24T07:55:38.814Z,11.90
2017-10-24T07:58:07.118Z,12.00
2017-10-24T08:00:35.382Z,12.10
2017-10-24T08:03:03.646Z,12.10
2017-10-24T08:05:33.452Z,12.10
2017-10-24T08:08:01.702Z,12.10
2017-10-24T08:10:29.987Z,12.20
2017-10-24T08:12:59.014Z,12.30
2017-10-24T08:15:27.318Z,12.20
2017-10-24T08:17:55.587Z,12.30
2017-10-24T08:20:24.618Z,12.30
2017-10-24T08:22:52.922Z,12.20
2017-10-24T08:25:21.951Z,12.40
2017-10-24T08:27:50.233Z,12.30
2017-10-24T08:30:18.498Z,12.40
2017-10-24T08:32:46.787Z,12.40
2017-10-24T08:35:15.822Z,12.40
2017-10-24T08:37:44.095Z,12.30
2017-10-24T08:40:12.379Z,12.30
2017-10-24T08:42:40.650Z,12.30
2017-10-24T08:45:08.926Z,12.20
2017-10-24T08:47:37.960Z,12.20
2017-10-24T08:50:06.279Z,12.10
2017-10-24T08:52:34.549Z,12.10
2017-10-24T08:55:02.827Z,12.10
2017-10-24T08:57:31.098Z,12.20
2017-10-24T08:59:59.358Z,12.20
2017-10-24T09:02:27.659Z,12.30
2017-10-24T09:04:55.919Z,12.30
2017-10-24T09:07:25.067Z,12.30
2017-10-24T09:09:53.331Z,12.30
2017-10-24T09:12:21.648Z,12.30
2017-10-24T09:14:49.915Z,12.30
2017-10-24T09:20:09.855Z,13.60
2017-10-24T09:22:38.148Z,12.40
2017-10-24T09:25:06.406Z,12.40
2017-10-24T09:27:34.673Z,12.40
2017-10-24T09:30:02.952Z,12.40
2017-10-24T09:32:33.118Z,12.40
2017-10-24T09:35:02.170Z,12.60
2017-10-24T09:37:30.437Z,12.50
2017-10-24T09:39:59.075Z,12.60
2017-10-24T09:42:27.335Z,12.60
2017-10-24T09:44:55.594Z,12.60
2017-10-24T09:47:23.877Z,12.60
2017-10-24T09:49:57.818Z,12.70
2017-10-24T09:52:26.118Z,12.70
2017-10-24T09:54:54.386Z,12.70
2017-10-24T09:57:23.285Z,12.70
2017-10-24T09:59:51.574Z,12.70
2017-10-24T10:02:19.891Z,12.70
2017-10-24T10:04:48.158Z,12.70
2017-10-24T10:07:16.444Z,12.70
2017-10-24T10:09:45.492Z,12.60
2017-10-24T10:12:13.754Z,12.60
2017-10-24T10:14:42.036Z,12.70
2017-10-24T10:17:11.283Z,12.80
2017-10-24T10:19:39.552Z,12.70
2017-10-24T10:22:14.938Z,12.80
2017-10-24T10:24:43.223Z,12.80
2017-10-24T10:27:11.536Z,12.70
2017-10-24T10:29:41.006Z,12.90
2017-10-24T10:32:09.273Z,12.80
2017-10-24T10:34:37.543Z,12.80
2017-10-24T10:37:06.598Z,12.70
2017-10-24T10:39:34.858Z,12.70
2017-10-24T10:42:03.142Z,12.80
2017-10-24T10:44:32.173Z,12.70
2017-10-24T10:47:00.679Z,12.70
2017-10-24T10:49:28.951Z,12.80
2017-10-24T10:51:57.987Z,12.80
2017-10-24T10:54:26.258Z,12.70
2017-10-24T10:56:54.523Z,12.80
2017-10-24T10:59:22.817Z,12.80
2017-10-24T11:01:51.851Z,12.90
2017-10-24T11:04:20.419Z,12.90
2017-10-24T11:06:48.680Z,12.90
2017-10-24T11:09:16.945Z,12.90
2017-10-24T11:11:45.228Z,12.90
2017-10-24T11:14:13.490Z,12.90
2017-10-24T11:16:41.774Z,12.90
2017-10-24T11:19:10.805Z,12.90
2017-10-24T11:21:39.195Z,12.80
2017-10-24T11:24:07.454Z,12.80
2017-10-24T11:26:35.730Z,12.80
2017-10-24T11:29:03.998Z,12.70
2017-10-24T11:31:33.027Z,12.60
2017-10-24T11:34:01.359Z,12.60
2017-10-24T11:36:29.638Z,12.60
2017-10-24T11:38:57.931Z,12.50
2017-10-24T11:41:26.635Z,12.60
2017-10-24T11:43:54.882Z,12.60
2017-10-24T11:46:23.164Z,12.60
2017-10-24T11:48:52.210Z,12.60
2017-10-24T11:51:22.536Z,12.60
2017-10-24T11:53:50.799Z,12.60
2017-10-24T11:56:19.894Z,12.70
2017-10-24T11:58:48.921Z,12.80
2017-10-24T12:01:17.181Z,12.70
2017-10-24T12:03:45.460Z,12.70
2017-10-24T12:06:13.722Z,12.80
2017-10-24T12:08:42.004Z,12.90
2017-10-24T12:11:11.033Z,12.90
2017-10-24T12:13:39.331Z,12.90
2017-10-24T12:16:07.600Z,13.00
2017-10-24T12:18:35.864Z,13.10
2017-10-24T12:21:04.911Z,13.00
2017-10-24T12:23:33.175Z,13.00
2017-10-24T12:26:01.463Z,13.00
2017-10-24T12:28:30.489Z,13.00
2017-10-24T12:30:59.338Z,13.00
2017-10-24T12:33:28.426Z,13.00
2017-10-24T12:35:56.708Z,13.00
2017-10-24T12:38:24.982Z,13.10
2017-10-24T12:40:53.274Z,13.10
2017-10-24T12:43:21.558Z,13.00
2017-10-24T12:45:50.574Z,13.00
2017-10-24T12:48:18.886Z,13.10
2017-10-24T12:50:48.707Z,13.10
2017-10-24T12:53:16.987Z,13.10
2017-10-24T12:55:45.288Z,13.20
2017-10-24T12:58:13.551Z,13.20
2017-10-24T13:00:41.890Z,13.20
2017-10-24T13:03:10.391Z,13.20
2017-10-24T13:05:39.962Z,13.30
2017-10-24T13:08:08.227Z,13.30
2017-10-24T13:10:36.544Z,13.30
2017-10-24T13:13:04.815Z,13.30
2017-10-24T13:15:33.082Z,13.30
2017-10-24T13:18:01.439Z,13.30
2017-10-24T13:20:29.706Z,13.30
2017-10-24T13:22:58.006Z,13.30
2017-10-24T13:25:26.265Z,13.40
2017-10-24T13:27:54.563Z,13.50
2017-10-24T13:30:22.826Z,13.70
2017-10-24T13:32:51.110Z,13.80
2017-10-24T13:35:19.394Z,13.80
2017-10-24T13:37:47.660Z,13.90
2017-10-24T13:40:15.934Z,13.90
2017-10-24T13:42:44.974Z,13.80
2017-10-24T13:45:13.374Z,13.80
2017-10-24T13:47:41.638Z,13.90
2017-10-24T13:50:09.902Z,13.90
2017-10-24T13:52:38.182Z,14.00
2017-10-24T13:55:07.211Z,14.00
2017-10-24T13:57:35.569Z,14.00
2017-10-24T14:00:03.841Z,13.90
2017-10-24T14:02:32.150Z,13.90
2017-10-24T14:05:06.815Z,13.90
2017-10-24T14:07:40.839Z,13.90
2017-10-24T14:10:15.430Z,13.90
2017-10-24T14:12:43.708Z,13.80
2017-10-24T14:15:13.504Z,13.70
2017-10-24T14:17:41.759Z,13.70
2017-10-24T14:20:10.054Z,13.70
2017-10-24T14:22:38.314Z,13.70
2017-10-24T14:25:06.570Z,13.70
2017-10-24T14:27:34.850Z,13.70
2017-10-24T14:30:03.121Z,13.80
2017-10-24T14:32:31.400Z,13.80
2017-10-24T14:34:59.658Z,13.80
2017-10-24T14:37:27.956Z,13.80
2017-10-24T14:39:56.991Z,13.80
2017-10-24T14:42:25.263Z,13.80
2017-10-24T14:44:53.543Z,13.80
2017-10-24T14:47:21.815Z,13.80
2017-10-24T14:49:50.091Z,13.80
2017-10-24T14:52:19.124Z,13.80
2017-10-24T14:54:47.438Z,13.80
2017-10-24T14:57:16.462Z,13.90
2017-10-24T14:59:44.730Z,13.80
2017-10-24T15:02:13.011Z,13.90
2017-10-24T15:04:41.279Z,13.90
2017-10-24T15:07:09.559Z,13.90
2017-10-24T15:09:37.827Z,13.90
2017-10-24T15:12:06.569Z,13.80
2017-10-24T15:14:34.830Z,13.80
2017-10-24T15:17:03.119Z,13.90
2017-10-24T15:19:32.154Z,13.80
2017-10-24T15:22:01.342Z,13.80
2017-10-24T15:24:29.618Z,13.80
2017-10-24T15:26:58.654Z,13.80
2017-10-24T15:29:26.962Z,13.80
2017-10-24T15:31:56.002Z,13.80
2017-10-24T15:34:24.280Z,13.80
2017-10-24T15:36:52.575Z,13.80
2017-10-24T15:39:21.602Z,13.80
2017-10-24T15:41:49.879Z,13.80
2017-10-24T15:44:18.146Z,13.80
2017-10-24T15:46:46.455Z,13.80
2017-10-24T15:49:14.719Z,13.70
2017-10-24T15:51:42.977Z,13.80
2017-10-24T15:54:11.258Z,13.80
2017-10-24T15:56:39.519Z,13.80
2017-10-24T15:59:07.794Z,13.70
2017-10-24T16:01:36.175Z,13.60
2017-10-24T16:04:04.474Z,13.60
2017-10-24T16:06:33.502Z,13.70
2017-10-24T16:09:01.767Z,13.60
2017-10-24T16:11:30.042Z,13.60
2017-10-24T16:13:58.301Z,13.50
2017-10-24T16:16:26.574Z,13.60
2017-10-24T16:18:54.835Z,13.50
2017-10-24T16:21:23.898Z,13.40
2017-10-24T16:23:52.162Z,13.30
2017-10-24T16:26:20.430Z,13.40
2017-10-24T16:28:48.732Z,13.30
2017-10-24T16:31:17.672Z,13.30
2017-10-24T16:33:45.938Z,13.40
2017-10-24T16:36:14.202Z,13.40
2017-10-24T16:38:42.659Z,13.40
2017-10-24T16:41:10.915Z,13.40
2017-10-24T16:43:39.175Z,13.30
2017-10-24T16:46:07.458Z,13.30
2017-10-24T16:48:36.482Z,13.30
2017-10-24T16:51:04.763Z,13.20
2017-10-24T16:53:33.030Z,13.20
2017-10-24T16:56:01.330Z,13.20
2017-10-24T16:58:29.595Z,13.10
2017-10-24T17:00:58.622Z,13.20
2017-10-24T17:03:26.899Z,13.10
2017-10-24T17:05:55.166Z,13.20
2017-10-24T17:08:23.438Z,13.10
2017-10-24T17:10:52.474Z,13.10
2017-10-24T17:13:20.776Z,13.00
2017-10-24T17:15:49.032Z,13.00
2017-10-24T17:18:17.303Z,13.00
2017-10-24T17:20:45.584Z,13.00
2017-10-24T17:23:13.843Z,13.00
2017-10-24T17:25:42.118Z,13.00
2017-10-24T17:28:10.387Z,13.00
2017-10-24T17:30:38.695Z,13.00
2017-10-24T17:33:06.955Z,13.00
2017-10-24T17:35:35.222Z,13.00
2017-10-24T17:38:03.566Z,12.90
2017-10-24T17:40:31.829Z,13.00
2017-10-24T17:43:00.106Z,13.00
2017-10-24T17:45:28.370Z,12.90
2017-10-24T17:47:57.470Z,12.90
2017-10-24T17:50:25.738Z,12.90
2017-10-24T17:52:54.006Z,13.00
2017-10-24T17:55:22.301Z,13.00
2017-10-24T17:57:50.588Z,13.00
2017-10-24T18:00:18.880Z,13.00
2017-10-24T18:02:47.911Z,13.00
2017-10-24T18:05:16.951Z,13.10
2017-10-24T18:07:45.220Z,13.00
2017-10-24T18:10:13.705Z,13.10
2017-10-24T18:12:41.967Z,13.00
2017-10-24T18:15:11.394Z,13.00
2017-10-24T18:17:40.586Z,12.90
2017-10-24T18:20:09.618Z,12.90
2017-10-24T18:22:37.913Z,12.90
2017-10-24T18:25:06.947Z,13.00
2017-10-24T18:27:35.234Z,12.90
2017-10-24T18:30:03.498Z,13.00
2017-10-24T18:32:31.754Z,13.00
2017-10-24T18:35:00.038Z,13.00
2017-10-24T18:37:28.303Z,13.00
2017-10-24T18:39:57.346Z,13.00
2017-10-24T18:42:25.610Z,13.00
2017-10-24T18:44:53.875Z,13.10
2017-10-24T18:47:22.179Z,13.00
2017-10-24T18:49:51.206Z,13.10
2017-10-24T18:52:19.548Z,13.10
2017-10-24T18:54:47.822Z,13.10
2017-10-24T18:57:16.083Z,13.10
2017-10-24T18:59:44.356Z,13.10
2017-10-24T19:02:12.618Z,13.00
2017-10-24T19:04:40.898Z,13.00
2017-10-24T19:07:10.670Z,12.90
2017-10-24T19:09:39.162Z,12.90
2017-10-24T19:12:07.427Z,12.90
2017-10-24T19:14:35.686Z,12.90
2017-10-24T19:17:03.988Z,12.80
2017-10-24T19:19:32.243Z,12.80
2017-10-24T19:22:00.562Z,12.80
2017-10-24T19:24:28.818Z,12.70
2017-10-24T19:26:57.118Z,12.70
2017-10-24T19:29:25.398Z,12.60
2017-10-24T19:31:53.665Z,12.60
2017-10-24T19:34:21.947Z,12.60
2017-10-24T19:36:50.211Z,12.60
2017-10-24T19:39:18.486Z,12.50
2017-10-24T19:41:46.773Z,12.50
2017-10-24T19:44:15.882Z,12.40
2017-10-24T19:46:44.154Z,12.30
2017-10-24T19:49:12.411Z,12.30
2017-10-24T19:51:40.709Z,12.30
2017-10-24T19:54:08.982Z,12.30
2017-10-24T19:56:37.258Z,12.30
2017-10-24T19:59:06.286Z,12.40
2017-10-24T20:01:34.603Z,12.40
2017-10-24T20:04:03.622Z,12.50
2017-10-24T20:06:31.904Z,12.50
2017-10-24T20:09:00.188Z,12.60
2017-10-24T20:11:28.458Z,12.60
2017-10-24T20:13:56.756Z,12.60
2017-10-24T20:16:25.007Z,12.60
2017-10-24T20:18:53.337Z,12.60
2017-10-24T20:21:23.102Z,12.50
2017-10-24T20:23:51.362Z,12.50
2017-10-24T20:26:19.652Z,12.50
2017-10-24T20:28:47.915Z,12.50
2017-10-24T20:31:16.195Z,12.50
2017-10-24T20:33:44.475Z,12.50
2017-10-24T20:36:12.740Z,12.50
2017-10-24T20:38:42.044Z,12.50
2017-10-24T20:41:10.298Z,12.50
2017-10-24T20:43:38.582Z,12.60
2017-10-24T20:46:06.833Z,12.60
2017-10-24T20:48:35.119Z,12.60
2017-10-24T20:51:03.405Z,12.60
2017-10-24T20:53:32.434Z,12.50
2017-10-24T20:56:00.711Z,12.50
2017-10-24T20:58:28.971Z,12.50
2017-10-24T21:00:57.267Z,12.60
2017-10-24T21:03:26.295Z,12.60
2017-10-24T21:05:54.595Z,12.60
2017-10-24T21:08:23.812Z,12.50
2017-10-24T21:10:52.731Z,12.60
2017-10-24T21:13:21.013Z,12.60
2017-10-24T21:15:49.821Z,12.60
2017-10-24T21:18:18.102Z,12.70
2017-10-24T21:20:46.522Z,12.70
2017-10-24T21:23:15.601Z,12.70
2017-10-24T21:25:44.639Z,12.70
2017-10-24T21:28:12.917Z,12.70
2017-10-24T21:30:41.206Z,12.70
2017-10-24T21:33:10.231Z,12.80
2017-10-24T21:35:38.503Z,12.70
2017-10-24T21:38:06.798Z,12.80
2017-10-24T21:40:35.114Z,12.80
2017-10-24T21:43:03.367Z,12.80
2017-10-24T21:45:31.631Z,12.80
2017-10-24T21:47:59.910Z,12.80
2017-10-24T21:50:28.185Z,12.80
2017-10-24T21:52:56.453Z,12.80
2017-10-24T21:55:24.715Z,12.80
2017-10-24T21:57:53.021Z,12.80
2017-10-24T22:00:28.282Z,12.80
2017-10-24T22:02:56.571Z,12.80
2017-10-24T22:05:25.617Z,12.80
2017-10-24T22:07:53.916Z,12.80
2017-10-24T22:10:22.958Z,12.90
2017-10-24T22:12:51.218Z,12.90
2017-10-24T22:15:19.499Z,12.90
2017-10-24T22:17:48.230Z,12.90
2017-10-24T22:20:16.520Z,12.90
2017-10-24T22:22:44.782Z,12.80
2017-10-24T22:25:13.047Z,12.80
2017-10-24T22:27:41.333Z,12.90
2017-10-24T22:30:10.362Z,12.90
2017-10-24T22:32:38.652Z,12.90
2017-10-24T22:35:06.907Z,12.90
2017-10-24T22:37:35.223Z,12.80
2017-10-24T22:40:03.488Z,12.80
2017-10-24T22:42:33.288Z,12.80
2017-10-24T22:45:02.407Z,12.80
2017-10-24T22:47:30.670Z,12.70
2017-10-24T22:49:58.950Z,12.70
2017-10-24T22:52:27.212Z,12.70
2017-10-24T22:54:55.519Z,12.70
2017-10-24T22:57:23.791Z,12.70
2017-10-24T22:59:52.054Z,12.70
2017-10-24T23:02:20.343Z,12.70
2017-10-24T23:04:48.607Z,12.70
2017-10-24T23:07:16.890Z,12.70
2017-10-24T23:09:45.146Z,12.70
2017-10-24T23:12:13.458Z,12.70
2017-10-24T23:14:41.721Z,12.70
2017-10-24T23:17:09.994Z,12.70
2017-10-24T23:19:38.271Z,12.70
2017-10-24T23:22:06.535Z,12.70
2017-10-24T23:24:34.818Z,12.70
2017-10-24T23:27:03.845Z,12.70
2017-10-24T23:29:32.141Z,12.70
2017-10-24T23:32:00.402Z,12.70
2017-10-24T23:34:28.687Z,12.70
2017-10-24T23:36:57.738Z,12.70
2017-10-24T23:39:25.998Z,12.70
2017-10-24T23:41:54.279Z,12.70
2017-10-24T23:44:23.308Z,12.80
2017-10-24T23:46:51.782Z,12.70
2017-10-24T23:49:20.049Z,12.80
2017-10-24T23:51:48.406Z,12.80
2017-10-24T23:54:16.688Z,12.80
2017-10-24T23:56:44.946Z,12.80
2017-10-24T23:59:13.221Z,12.80
